• Join FlightAware (Why Join?)
  • Login
  • US Flag GB Flag 
13:20 EST


 

Airport Tracker/Info


-or-


 

Live Flight TrackerFlight Track Log ✈ CNS33 ✈ 05-May-2013 ✈ KPTW - KLCK

Flight Track Log - Related Links

Times and Time Zones

All times are in EDT time to prevent confusion due to time zone crossing. See the CNS33 flight status page for this flight to view local times or setup timezone preferences in your user account.

Time Position Orientation Groundspeed Altitude Reporting Facility
EDT Latitude Longitude Course Direction KTS MPH feet Rate Location/Type
14:20 40.2167 -75.5667 123° Southeast 167 192 3,000  Level Philadelphia TRACON
14:22 40.1833 -75.5000 123° Southeast 204 235 3,000 660 Level Philadelphia TRACON
14:23 40.1833 -75.4333 90° East 153 176 4,500 900 Climbing Philadelphia TRACON
14:24 40.1833 -75.3667 90° East 184 212 5,000 180 Climbing Philadelphia TRACON
14:25 40.1833 -75.3000 90° East 207 238 5,000  Level Philadelphia TRACON
14:26 40.1833 -75.2333 90° East 198 228 5,000  Level Philadelphia TRACON
14:27 40.1500 -75.1667 123° Southeast 208 239 5,000  Level Philadelphia TRACON
14:28 40.1167 -75.1167 131° Southeast 190 219 5,000  Level Philadelphia TRACON
14:29 40.0833 -75.0667 131° Southeast 178 205 5,000  Level Philadelphia TRACON
14:30 40.1000 -75.0000 72° East 181 208 5,000  Level Philadelphia TRACON
14:31 40.0500 -74.9833 166° South 229 264 5,000 480 Level Philadelphia TRACON
14:32 40.0333 -75.0667 255° West 222 255 6,000 900 Climbing Philadelphia TRACON
14:33 40.0167 -75.1500 255° West 214 246 6,800 900 Climbing Philadelphia TRACON
14:34 40.0000 -75.2333 255° West 214 246 8,000 1,020 Climbing Philadelphia TRACON
14:35 39.9833 -75.3000 252° West 200 230 9,000 480 Climbing Philadelphia TRACON
14:36 39.9733 -75.3811 261° West 236 272 9,000  Level New York Center
14:37 39.9592 -75.4778 259° West 250 288 9,000  Level New York Center
14:38 39.9394 -75.5550 252° West 278 320 9,000  Level New York Center
14:39 39.9233 -75.6403 256° West 270 311 9,000  Level New York Center
14:40 39.9153 -75.7319 263° West 258 297 9,000 120 Level New York Center
14:41 39.9158 -75.8158 271° West 253 291 9,300 960 Climbing New York Center
14:43 39.9114 -75.9672 268° West 211 243 12,000 1,260 Climbing New York Center
14:44 39.9103 -76.0428 269° West 206 237 13,200 1,080 Climbing New York Center
14:45 39.9089 -76.1186 269° West 211 243 14,200 1,020 Climbing New York Center
14:46 39.9075 -76.1942 269° West 216 249 15,300 960 Climbing New York Center
14:47 39.9100 -76.2728 272° West 216 249 16,200 840 Climbing New York Center
14:48 39.9150 -76.3464 275° West 216 249 17,000 780 Climbing New York Center
14:49 39.9275 -76.4339 281° West 221 254 17,800 780 Climbing New York Center
14:50 39.9158 -76.5036 258° West 216 249 18,700 720 Climbing New York Center
14:51 39.9181 -76.5850 272° West 216 249 19,300 720 Climbing New York Center
14:52 39.9331 -76.6619 284° West 216 249 20,200 840 Climbing New York Center
14:53 39.9311 -76.7403 268° West 221 254 21,100 780 Climbing New York Center
14:54 39.9250 -76.8183 264° West 216 249 21,800 600 Climbing New York Center
14:55 39.9314 -76.8975 276° West 216 249 22,300 540 Climbing New York Center
14:56 39.9375 -76.9792 276° West 221 254 22,900 660 Climbing New York Center
14:57 39.9375 -77.0606 270° West 221 254 23,700 600 Climbing New York Center
14:58 39.9436 -77.1394 276° West 221 254 24,200 540 Climbing New York Center
15:00 39.9511 -77.3086 273° West 215 247 25,400 540 Climbing Cleveland Center
15:01 39.9514 -77.3844 270° West 215 247 26,000 300 Climbing Cleveland Center
15:02 39.9597 -77.4628 278° West 215 247 26,000  Level Cleveland Center
15:03 39.9600 -77.5494 270° West 220 253 26,000  Level Cleveland Center
15:04 39.9644 -77.6386 274° West 239 275 26,000  Level Cleveland Center
15:05 39.9669 -77.7333 272° West 250 288 26,000  Level Cleveland Center
15:06 39.9711 -77.8253 273° West 250 288 26,000  Level Cleveland Center
15:07 39.9736 -77.9200 272° West 255 293 26,000  Level Cleveland Center
15:08 39.9736 -78.0122 270° West 255 293 26,000  Level Cleveland Center
15:09 39.9775 -78.1042 273° West 255 293 26,000  Level Cleveland Center
15:10 39.9817 -78.1933 274° West 255 293 26,000  Level Cleveland Center
15:11 39.9814 -78.2772 270° West 255 293 26,000  Level Cleveland Center
15:12 39.9831 -78.3639 271° West 250 288 26,000  Level Cleveland Center
15:13 39.9828 -78.4561 270° West 250 288 26,000  Level Cleveland Center
15:14 39.9844 -78.5456 271° West 250 288 26,000  Level Cleveland Center
15:15 39.9881 -78.6347 273° West 250 288 26,000  Level Cleveland Center
15:16 39.9917 -78.7242 273° West 250 288 26,000  Level Cleveland Center
15:17 39.9908 -78.8164 269° West 250 288 26,000  Level Cleveland Center
15:18 39.9922 -78.9058 271° West 250 288 26,000  Level Cleveland Center
15:19 40.0000 -79.0058 276° West 257 296 26,000  Level Cleveland Center
15:20 40.0011 -79.0953 271° West 257 296 26,000  Level Cleveland Center
15:21 40.0019 -79.1631 271° West 250 288 26,000  Level Cleveland Center
15:22 40.0033 -79.2606 271° West 245 282 26,000  Level Cleveland Center
15:23 40.0042 -79.3472 271° West 245 282 26,000  Level Cleveland Center
15:24 40.0072 -79.4394 273° West 250 288 26,000  Level Cleveland Center
15:25 40.0081 -79.5261 271° West 250 288 26,000  Level Cleveland Center
15:26 40.0111 -79.6181 273° West 250 288 26,000  Level Cleveland Center
15:27 40.0117 -79.7075 270° West 250 288 26,000  Level Cleveland Center
15:28 40.0122 -79.7969 270° West 250 288 26,000  Level Cleveland Center
15:29 40.0131 -79.8892 271° West 250 288 26,000 -180 Level Cleveland Center
15:30 40.0156 -79.9814 272° West 250 288 25,700 -600 Descending Cleveland Center
15:31 40.0161 -80.0817 270° West 260 299 24,800 -960 Descending Cleveland Center
15:32 40.0164 -80.1872 270° West 274 315 23,800 -1,020 Descending Cleveland Center
15:33 40.0189 -80.2983 272° West 296 341 22,800 -900 Descending Cleveland Center
15:34 40.0192 -80.4069 270° West 301 346 22,100 -420 Descending Cleveland Center
15:35 40.0192 -80.5072 270° West 296 341 22,000 -60 Descending Cleveland Center
15:36 40.0192 -80.6075 270° West 286 329 22,000  Level Cleveland Center
15:37 40.0108 -80.7022 263° West 280 322 22,000 -60 Level Cleveland Center
15:38 39.9961 -80.7972 259° West 275 316 21,900 -600 Descending Cleveland Center
15:39 39.9769 -80.8972 256° West 275 316 20,900 -900 Descending Cleveland Center
15:40 39.9600 -81.0028 258° West 294 338 20,100 -480 Descending Cleveland Center
15:41 39.9328 -81.1456 256° West 296 341 19,800 -840 Descending Indianapolis Center
15:42 39.9167 -81.2500 259° West 294 338 18,100 -1,320 Descending Indianapolis Center
15:43 39.9092 -81.3794 266° West 298 343 17,100 -1,020 Descending Indianapolis Center
15:44 39.8978 -81.4822 262° West 297 342 16,100 -960 Descending Indianapolis Center
15:45 39.8789 -81.5875 257° West 295 339 15,200 -1,020 Descending Indianapolis Center
15:46 39.8614 -81.6928 258° West 296 341 14,100 -1,020 Descending Indianapolis Center
15:47 39.8386 -81.7933 254° West 290 334 13,100 -960 Descending Indianapolis Center
15:49 39.8181 -81.8947 255° West 287 330 12,100 -1,140 Descending Indianapolis Center
15:50 39.8017 -82.0164 260° West 290 334 10,800 -1,020 Descending Indianapolis Center
15:51 39.7636 -82.1028 240° Southwest 274 315 10,100 -360 Descending Indianapolis Center
15:52 39.7431 -82.1950 254° West 215 247 10,100 -360 Level Indianapolis Center
15:53 39.7322 -82.2611 258° West 223 257 9,400 -1,020 Descending Indianapolis Center
15:54 39.7144 -82.3467 255° West 237 273 8,200 -1,140 Descending Indianapolis Center
15:55 39.6958 -82.4328 254° West 243 280 7,100 -1,140 Descending Indianapolis Center
15:56 39.6772 -82.5153 254° West 238 274 5,900 -1,200 Descending Indianapolis Center
15:57 39.6603 -82.5936 254° West 229 264 4,700 -900 Descending Indianapolis Center
15:58 39.6408 -82.6783 253° West 212 244 4,100 -300 Descending Indianapolis Center
15:59 39.6347 -82.7472 263° West 196 226 4,100  Level Indianapolis Center
15:59 39.6328 -82.7736 265° West 189 217 4,100  Level Indianapolis Center
16:00 39.6283 -82.8169 262° West 194 223 4,100 -60 Level Indianapolis Center
16:01 39.6186 -82.8911 260° West 195 224 4,000  Descending Indianapolis Center
16:02 39.6094 -82.9658 261° West 201 231 4,100 -60 Climbing Indianapolis Center
16:03 39.6067 -83.0386 267° West 204 235 3,900 -480 Descending Indianapolis Center
16:04 39.6433 -83.0883 314° West 204 235 3,100 -420 Descending Indianapolis Center
16:05 39.6911 -83.0861 North 140 161 3,100  Level Indianapolis Center
16:06 39.7161 -83.0592 40° Northeast 117 135 3,100 -300 Level Indianapolis Center
16:07 39.7392 -83.0294 45° Northeast 118 136 2,600 -540 Descending Indianapolis Center
16:08 39.7619 -82.9994 45° Northeast 109 125 2,100 -600 Descending Indianapolis Center
16:09 39.7828 -82.9719 45° Northeast 112 129 1,400 -420 Descending Indianapolis Center
16:10 39.8058 -82.9411 46° Northeast 112 129 1,200  Descending Indianapolis Center
16:11 39.8172 -82.9272 43° Northeast 101 116 1,400 960 Climbing Indianapolis Center
16:11 39.8222 -82.9142 63° Northeast 116 133 2,000 1,080 Climbing Indianapolis Center
16:12 39.7936 -82.8728 132° Southeast 174 200 3,000 420 Climbing Indianapolis Center
16:13 39.7497 -82.8706 178° South 188 216 2,900 -60 Descending Indianapolis Center
16:14 39.7536 -82.9389 274° West 186 214 2,900  Level Indianapolis Center
16:15 39.7456 -82.9950 259° West 170 196 2,900  Level Indianapolis Center
16:16 39.7292 -83.0525 250° West 182 209 2,900  Level Indianapolis Center
16:17 39.6925 -83.0972 223° Southwest 171 197 2,900  Level Indianapolis Center
16:18 39.6461 -83.1025 185° South 170 196 2,900  Level Indianapolis Center
16:19 39.6069 -83.1225 201° Southwest 189 217 2,900  Level Indianapolis Center
16:20 39.6328 -83.1417 330° Northwest 147 169 3,000  Climbing Indianapolis Center
16:21 39.6669 -83.1050 40° Northeast 139 160 2,900 -60 Descending Indianapolis Center
16:22 39.6981 -83.0761 36° Northeast 138 159 2,900 -240 Level Indianapolis Center
16:23 39.7281 -83.0361 46° Northeast 147 169 2,500 -360 Descending Indianapolis Center
16:24 39.7553 -83.0069 39° Northeast 132 152 2,200 -480 Descending Indianapolis Center
16:25 39.7781 -82.9797 43° Northeast 103 119 1,500 -660 Descending Indianapolis Center
16:26 39.7989 -82.9522 45° Northeast 100 115 900 -600 Descending Indianapolis Center